PILOTS ONLINE: 254    ATC ONLINE: 22

KHND

Henderson Executive Airport

Location

City Las Vegas
Country  United States
Latitude 35° 58' 22" N
Longitude 115° 8' 2" W
Elevation 2492 ft
Type Small Airport

Map

Weather

METAR
2014/10/23 09:56
KHND 230956Z AUTO 16007KT 10SM CLR 17/M02 A3006 RMK AO2 T01661016 SLP163
TAF
2014/10/23 06:30
TAF KHND 230528Z 2306/2406 17007KT P6SM FEW250 
     FM231500 VRB04KT P6SM FEW250 
     FM231900 05006KT P6SM FEW250 
     FM240300 17007KT P6SM SKC

Runways

17L/35R 5001 ft / 75 ft
17R/35L 6501 ft / 100 ft

Outbound flights

Callsign Flying to Pilot ATD/STD ETA Aircraft

Inbound flights

Callsign Flying from Pilot ATD ETA Aircraft